Time;durP1;ratioP1;P1;durP2;ratioP2;P2;SDS_P1;SDS_P2;PMS_P1;PMS_P2;Temp;Humidity;BMP_temperature;BMP_pressure;BME280_temperature;BME280_humidity;BME280_pressure;Samples;Min_cycle;Max_cycle;Signal;HPM_P1;HPM_P2
2023/10/26 00:02:07;;;;;;;2.20;2.00;;;10.00;99.90;;;;;;5075502;28;20052;-67
2023/10/26 00:04:33;;;;;;;2.20;2.00;;;10.00;99.90;;;;;;5075144;28;20041;-67
2023/10/26 00:07:00;;;;;;;2.22;2.00;;;10.00;99.90;;;;;;5075665;28;20040;-66
2023/10/26 00:09:26;;;;;;;2.50;2.30;;;10.00;99.90;;;;;;5075146;28;20513;-66
2023/10/26 00:11:52;;;;;;;2.70;2.50;;;10.00;99.90;;;;;;5075404;28;20041;-66
2023/10/26 00:14:18;;;;;;;3.10;2.80;;;10.00;99.90;;;;;;5075355;28;20086;-66
2023/10/26 00:16:43;;;;;;;2.38;2.17;;;10.10;99.90;;;;;;5075236;28;20115;-66
2023/10/26 00:19:09;;;;;;;2.85;2.03;;;10.00;99.90;;;;;;5074909;28;20044;-66
2023/10/26 00:21:34;;;;;;;2.25;2.08;;;10.00;99.90;;;;;;5075153;28;20048;-66
2023/10/26 00:24:00;;;;;;;2.47;2.28;;;10.00;99.90;;;;;;5075187;28;20526;-66
2023/10/26 00:26:25;;;;;;;2.83;2.63;;;10.00;99.90;;;;;;5074993;28;20049;-66
2023/10/26 00:28:51;;;;;;;2.63;2.33;;;10.40;99.90;;;;;;5075070;28;20115;-67
2023/10/26 00:31:17;;;;;;;2.45;2.25;;;10.00;99.90;;;;;;5075027;28;20036;-67
2023/10/26 00:33:42;;;;;;;3.05;2.65;;;10.00;99.90;;;;;;5074962;28;20388;-66
2023/10/26 00:36:08;;;;;;;2.50;2.30;;;9.90;99.90;;;;;;5074875;28;20036;-67
2023/10/26 00:38:34;;;;;;;2.80;2.58;;;10.00;99.90;;;;;;5073584;28;20044;-67
2023/10/26 00:41:00;;;;;;;3.03;2.75;;;10.00;99.90;;;;;;5074691;28;20044;-67
2023/10/26 00:43:25;;;;;;;2.80;2.60;;;10.00;99.90;;;;;;5074764;28;20400;-67
2023/10/26 00:45:52;;;;;;;2.97;2.67;;;10.00;99.90;;;;;;5073124;28;20044;-66
2023/10/26 00:48:19;;;;;;;3.90;3.50;;;10.00;99.90;;;;;;5074374;28;20125;-70
2023/10/26 00:50:44;;;;;;;3.42;3.00;;;10.00;99.90;;;;;;5074335;28;20090;-66
2023/10/26 00:53:11;;;;;;;2.92;2.72;;;10.00;99.90;;;;;;5073086;28;20423;-66
2023/10/26 00:55:39;;;;;;;4.00;3.42;;;10.00;99.90;;;;;;5074706;28;20040;-66
2023/10/26 00:58:05;;;;;;;4.30;3.28;;;10.00;99.90;;;;;;5074278;28;20046;-67
2023/10/26 01:00:31;;;;;;;3.95;3.47;;;9.90;99.90;;;;;;5074144;28;20033;-66
2023/10/26 01:02:57;;;;;;;3.95;3.58;;;9.90;99.90;;;;;;5074032;28;20047;-66
2023/10/26 01:05:22;;;;;;;3.72;3.42;;;9.90;99.90;;;;;;5074318;28;20040;-66
2023/10/26 01:07:48;;;;;;;3.80;3.50;;;9.80;99.90;;;;;;5073915;28;20111;-66
2023/10/26 01:10:14;;;;;;;3.22;2.95;;;9.80;99.90;;;;;;5074198;28;20085;-66
2023/10/26 01:12:39;;;;;;;4.38;3.97;;;9.80;99.90;;;;;;5074172;28;20040;-67
2023/10/26 01:15:06;;;;;;;4.68;4.28;;;9.80;99.90;;;;;;5073922;28;20072;-67
2023/10/26 01:17:34;;;;;;;3.90;3.60;;;9.70;99.90;;;;;;5074317;28;20037;-67
2023/10/26 01:19:59;;;;;;;4.20;3.90;;;9.70;99.90;;;;;;5073740;28;20044;-67
2023/10/26 01:22:29;;;;;;;4.75;3.85;;;9.80;99.90;;;;;;5073974;28;20119;-67
2023/10/26 01:24:55;;;;;;;4.07;3.70;;;9.70;99.90;;;;;;5073918;28;20473;-67
2023/10/26 01:27:21;;;;;;;3.80;3.50;;;9.80;99.90;;;;;;5073816;28;20040;-67
2023/10/26 01:29:46;;;;;;;4.57;4.18;;;9.80;99.90;;;;;;5073582;28;20119;-68
2023/10/26 01:32:12;;;;;;;4.00;3.70;;;9.70;99.90;;;;;;5073533;28;20044;-67
2023/10/26 01:34:38;;;;;;;4.25;3.90;;;9.70;99.90;;;;;;5073680;28;20083;-67
2023/10/26 01:37:05;;;;;;;4.60;4.20;;;9.70;99.90;;;;;;5073334;28;20161;-67
2023/10/26 01:39:30;;;;;;;5.03;4.63;;;9.70;99.90;;;;;;5073705;28;20123;-67
2023/10/26 01:41:56;;;;;;;3.97;3.67;;;9.70;99.90;;;;;;5073158;28;20476;-67
2023/10/26 01:44:21;;;;;;;4.53;4.22;;;9.70;99.90;;;;;;5073660;28;20045;-67
2023/10/26 01:46:47;;;;;;;4.90;4.32;;;9.60;99.90;;;;;;5088792;28;20079;-67
2023/10/26 01:49:13;;;;;;;5.30;4.80;;;9.60;99.90;;;;;;5073476;28;20043;-67
2023/10/26 01:51:38;;;;;;;4.97;4.57;;;9.60;99.90;;;;;;5073282;28;20047;-67
2023/10/26 01:54:04;;;;;;;5.25;4.85;;;9.60;99.90;;;;;;5073470;28;20032;-67
2023/10/26 01:56:30;;;;;;;4.93;4.53;;;9.60;99.90;;;;;;5073450;28;20480;-67
2023/10/26 01:58:57;;;;;;;4.85;4.38;;;9.50;99.90;;;;;;5071951;28;20037;-67
2023/10/26 02:01:24;;;;;;;5.57;5.00;;;9.50;99.90;;;;;;5073051;28;20044;-67
2023/10/26 02:03:50;;;;;;;5.13;4.72;;;9.50;99.90;;;;;;5071892;28;20040;-67
2023/10/26 02:06:15;;;;;;;4.72;4.32;;;9.60;99.90;;;;;;5073242;28;20124;-67
2023/10/26 02:08:41;;;;;;;5.25;4.75;;;9.60;99.90;;;;;;5073271;28;20082;-67
2023/10/26 02:11:07;;;;;;;5.60;5.10;;;9.60;99.90;;;;;;5072991;28;20059;-67
2023/10/26 02:13:35;;;;;;;5.95;5.50;;;9.60;99.90;;;;;;5073215;28;20041;-67
2023/10/26 02:16:01;;;;;;;5.32;4.93;;;9.60;99.90;;;;;;5073086;28;20080;-70
2023/10/26 02:18:28;;;;;;;5.55;5.05;;;9.60;99.90;;;;;;5073130;28;20051;-67
2023/10/26 02:20:54;;;;;;;5.07;4.70;;;10.20;99.90;;;;;;5073090;28;20438;-67
2023/10/26 02:23:21;;;;;;;5.20;4.80;;;9.60;99.90;;;;;;5073156;28;20042;-67
2023/10/26 02:25:46;;;;;;;5.43;5.03;;;9.60;99.90;;;;;;5071845;28;20040;-67
2023/10/26 02:28:15;;;;;;;4.45;4.13;;;9.60;99.90;;;;;;5073256;28;20720;-67
2023/10/26 02:30:45;;;;;;;4.57;4.20;;;9.60;99.90;;;;;;5071548;28;20396;-67
2023/10/26 02:33:11;;;;;;;4.93;4.53;;;9.60;99.90;;;;;;5073202;28;20032;-67
2023/10/26 02:35:40;;;;;;;5.15;4.65;;;9.60;99.90;;;;;;5072638;28;20043;-67
2023/10/26 02:38:05;;;;;;;4.63;4.30;;;9.60;99.90;;;;;;5072732;28;20090;-67
2023/10/26 02:40:32;;;;;;;5.28;4.88;;;9.60;99.90;;;;;;5072916;28;20480;-67
2023/10/26 02:42:59;;;;;;;4.65;4.30;;;9.60;99.90;;;;;;5072456;28;20060;-67
2023/10/26 02:45:25;;;;;;;4.72;4.32;;;9.60;99.90;;;;;;5072830;28;20056;-67
2023/10/26 02:47:50;;;;;;;5.00;4.60;;;9.60;99.90;;;;;;5072545;28;20056;-67
2023/10/26 02:50:16;;;;;;;5.30;4.88;;;9.60;99.90;;;;;;5072622;28;20037;-67
2023/10/26 02:52:42;;;;;;;5.43;4.93;;;9.60;99.90;;;;;;5072785;28;20033;-67
2023/10/26 02:55:08;;;;;;;6.60;5.43;;;9.60;99.90;;;;;;5071430;28;20036;-67
2023/10/26 02:57:33;;;;;;;5.55;5.00;;;9.60;99.90;;;;;;5072727;28;20040;-67
2023/10/26 02:59:59;;;;;;;5.32;4.93;;;9.60;99.90;;;;;;5072736;28;20392;-67
2023/10/26 03:02:24;;;;;;;4.82;4.43;;;9.60;99.90;;;;;;5073728;28;20039;-67
2023/10/26 03:04:50;;;;;;;5.25;4.85;;;9.60;99.90;;;;;;5076653;28;20036;-68
2023/10/26 03:07:22;;;;;;;6.05;5.45;;;9.60;99.90;;;;;;5076517;28;20036;-67
2023/10/26 03:09:49;;;;;;;5.50;5.03;;;9.60;99.90;;;;;;5076251;28;20041;-67
2023/10/26 03:12:14;;;;;;;4.70;4.30;;;9.60;99.90;;;;;;5076192;28;20036;-67
2023/10/26 03:14:40;;;;;;;5.50;5.07;;;9.60;99.90;;;;;;5076404;28;20040;-67
2023/10/26 03:17:06;;;;;;;5.10;4.70;;;9.60;99.90;;;;;;5076292;28;20397;-67
2023/10/26 03:19:32;;;;;;;5.40;4.90;;;9.70;99.90;;;;;;5076326;28;20043;-67
2023/10/26 03:21:58;;;;;;;5.80;5.30;;;9.60;99.90;;;;;;5076340;28;20088;-67
2023/10/26 03:24:23;;;;;;;5.18;4.78;;;9.60;99.90;;;;;;5076222;28;20050;-67
2023/10/26 03:26:49;;;;;;;5.88;5.38;;;9.60;99.90;;;;;;5074606;28;20048;-67
2023/10/26 03:29:15;;;;;;;5.53;4.78;;;9.60;99.90;;;;;;5076202;28;20444;-66
2023/10/26 03:31:41;;;;;;;5.57;5.15;;;9.60;99.90;;;;;;5075774;28;20044;-67
2023/10/26 03:34:07;;;;;;;5.45;4.95;;;9.60;99.90;;;;;;5074534;28;20040;-67
2023/10/26 03:36:33;;;;;;;5.35;4.95;;;9.60;99.90;;;;;;5075995;28;20071;-66
2023/10/26 03:38:59;;;;;;;5.10;4.68;;;9.60;99.90;;;;;;5076068;28;20098;-67
2023/10/26 03:41:24;;;;;;;6.10;5.60;;;9.60;99.90;;;;;;5075501;28;20444;-68
2023/10/26 03:43:50;;;;;;;4.47;4.07;;;9.70;99.90;;;;;;5075850;28;20036;-67
2023/10/26 03:46:16;;;;;;;5.05;4.65;;;9.60;99.90;;;;;;5075716;28;20040;-67
2023/10/26 03:48:41;;;;;;;5.40;4.90;;;9.90;99.90;;;;;;5075771;28;20075;-67
2023/10/26 03:51:07;;;;;;;5.53;5.13;;;9.70;99.90;;;;;;5075762;28;20036;-67
2023/10/26 03:53:33;;;;;;;5.55;5.15;;;9.70;99.90;;;;;;5075725;28;20067;-67
2023/10/26 03:55:58;;;;;;;5.43;5.00;;;9.70;99.90;;;;;;5075441;28;20055;-67
2023/10/26 03:58:24;;;;;;;5.15;4.60;;;9.70;99.90;;;;;;5091282;28;20052;-67
2023/10/26 04:00:51;;;;;;;5.40;4.78;;;9.70;99.90;;;;;;5075590;28;20071;-67
2023/10/26 04:03:17;;;;;;;5.53;5.13;;;9.60;99.90;;;;;;5075350;28;20503;-67
2023/10/26 04:05:42;;;;;;;5.55;5.05;;;9.80;99.90;;;;;;5075445;28;20036;-67
2023/10/26 04:08:09;;;;;;;5.47;5.07;;;9.60;99.90;;;;;;5075500;28;20051;-70
2023/10/26 04:10:35;;;;;;;6.05;5.55;;;9.70;99.90;;;;;;5074177;28;20040;-69
2023/10/26 04:13:01;;;;;;;6.05;5.57;;;10.30;99.90;;;;;;5075119;28;20044;-68
2023/10/26 04:15:27;;;;;;;4.68;4.28;;;9.70;99.90;;;;;;5075326;28;20044;-72
2023/10/26 04:17:53;;;;;;;4.35;4.05;;;9.60;99.90;;;;;;5073776;28;20044;-68
2023/10/26 04:20:20;;;;;;;6.22;5.72;;;9.70;99.90;;;;;;5074944;28;20040;-68
2023/10/26 04:22:46;;;;;;;4.88;4.47;;;9.60;99.90;;;;;;5075179;28;20072;-67
2023/10/26 04:25:12;;;;;;;6.40;5.90;;;9.70;99.90;;;;;;5073864;28;20040;-68
2023/10/26 04:27:38;;;;;;;5.15;4.65;;;9.70;99.90;;;;;;5090403;28;20039;-68
2023/10/26 04:30:05;;;;;;;5.78;5.15;;;9.70;99.90;;;;;;5074839;28;20049;-68
2023/10/26 04:32:30;;;;;;;4.63;4.28;;;9.70;99.90;;;;;;5075083;28;20103;-68
2023/10/26 04:34:56;;;;;;;6.00;5.50;;;11.10;99.90;;;;;;5073460;28;20123;-68
2023/10/26 04:37:22;;;;;;;4.95;4.55;;;9.70;99.90;;;;;;5075034;28;20472;-70
2023/10/26 04:39:47;;;;;;;5.20;4.80;;;9.70;99.90;;;;;;5073294;28;20044;-67
2023/10/26 04:42:13;;;;;;;5.45;4.95;;;9.60;99.90;;;;;;5074474;28;20529;-67
2023/10/26 04:44:39;;;;;;;5.65;5.15;;;9.70;99.90;;;;;;5074800;28;20037;-67
2023/10/26 04:47:05;;;;;;;6.55;5.95;;;10.00;99.90;;;;;;5074354;28;20048;-67
2023/10/26 04:49:33;;;;;;;4.97;4.57;;;9.70;99.90;;;;;;5074856;28;20040;-67
2023/10/26 04:51:59;;;;;;;5.30;4.82;;;9.70;99.90;;;;;;5074304;28;20044;-67
2023/10/26 04:54:27;;;;;;;7.10;5.10;;;10.30;99.90;;;;;;5074504;28;20079;-67
2023/10/26 04:56:53;;;;;;;5.72;5.28;;;9.70;99.90;;;;;;5074453;28;20040;-67
2023/10/26 04:59:18;;;;;;;4.82;4.43;;;9.70;99.90;;;;;;5074529;28;20070;-67
2023/10/26 05:01:44;;;;;;;5.45;4.93;;;9.70;99.90;;;;;;5074378;28;20472;-67
2023/10/26 05:04:10;;;;;;;4.90;4.50;;;9.70;99.90;;;;;;5074359;28;20036;-67
2023/10/26 05:06:36;;;;;;;5.72;5.22;;;9.60;99.90;;;;;;5074233;28;20040;-68
2023/10/26 05:09:01;;;;;;;5.43;4.95;;;9.60;99.90;;;;;;5073130;28;20116;-67
2023/10/26 05:11:27;;;;;;;5.47;5.07;;;9.60;99.90;;;;;;5073864;28;20036;-67
2023/10/26 05:13:53;;;;;;;5.80;5.30;;;9.60;99.90;;;;;;5074131;28;20033;-67
2023/10/26 05:16:19;;;;;;;5.35;4.95;;;9.60;99.90;;;;;;5074100;28;20381;-67
2023/10/26 05:18:44;;;;;;;5.72;5.25;;;9.60;99.90;;;;;;5073741;28;20052;-67
2023/10/26 05:21:10;;;;;;;5.60;5.20;;;9.60;99.90;;;;;;5072481;28;20044;-67
2023/10/26 05:23:37;;;;;;;4.93;4.53;;;9.60;99.90;;;;;;5073953;28;20048;-67
2023/10/26 05:26:03;;;;;;;5.68;5.28;;;9.60;99.90;;;;;;5073368;28;20127;-67
2023/10/26 05:28:29;;;;;;;5.45;5.05;;;9.60;99.90;;;;;;5073978;28;20838;-71
2023/10/26 05:30:54;;;;;;;6.05;5.55;;;9.60;99.90;;;;;;5072323;28;20040;-66
2023/10/26 05:33:20;;;;;;;5.55;5.05;;;9.60;99.90;;;;;;5072273;28;20436;-66
2023/10/26 05:35:46;;;;;;;5.05;4.65;;;9.70;99.90;;;;;;5072218;28;20051;-67
2023/10/26 05:38:11;;;;;;;5.63;4.95;;;10.00;99.90;;;;;;5073659;28;20043;-66
2023/10/26 05:40:37;;;;;;;5.03;4.63;;;9.60;99.90;;;;;;5073652;28;20070;-67
2023/10/26 05:43:03;;;;;;;5.63;5.13;;;9.50;99.90;;;;;;5073185;28;20060;-66
2023/10/26 05:45:36;;;;;;;5.78;5.28;;;9.60;99.90;;;;;;5073158;28;20481;-71
2023/10/26 05:48:03;;;;;;;5.05;4.65;;;9.50;99.90;;;;;;5073600;28;20036;-68
2023/10/26 05:50:29;;;;;;;5.47;5.00;;;9.50;99.90;;;;;;5073516;28;20085;-68
2023/10/26 05:52:55;;;;;;;5.97;5.47;;;9.50;99.90;;;;;;5073467;28;20032;-71
2023/10/26 05:55:23;;;;;;;5.55;5.05;;;9.50;99.90;;;;;;5073369;28;20029;-67
2023/10/26 05:57:49;;;;;;;5.43;5.03;;;9.50;99.90;;;;;;5072229;28;20048;-68
2023/10/26 06:00:15;;;;;;;5.60;5.20;;;9.50;99.90;;;;;;5071949;28;20043;-66
2023/10/26 06:02:41;;;;;;;5.95;4.80;;;9.40;99.90;;;;;;5073425;28;20472;-67
2023/10/26 06:05:08;;;;;;;5.35;4.95;;;9.40;99.90;;;;;;5073286;28;20039;-67
2023/10/26 06:07:33;;;;;;;4.72;4.32;;;9.40;99.90;;;;;;5072914;28;20067;-67
2023/10/26 06:09:59;;;;;;;6.03;5.43;;;9.80;99.90;;;;;;5072352;28;20044;-66
2023/10/26 06:12:25;;;;;;;5.82;5.32;;;9.40;99.90;;;;;;5072339;28;20044;-67
2023/10/26 06:14:50;;;;;;;5.97;5.47;;;9.40;99.90;;;;;;5072338;28;20629;-66
2023/10/26 06:17:16;;;;;;;5.03;4.63;;;9.30;99.90;;;;;;5072282;28;20044;-66
2023/10/26 06:19:41;;;;;;;5.70;5.20;;;9.30;99.90;;;;;;5070681;28;20150;-66
2023/10/26 06:22:07;;;;;;;4.82;4.43;;;9.30;99.90;;;;;;5072255;28;20036;-66
2023/10/26 06:24:32;;;;;;;5.85;5.35;;;9.30;99.90;;;;;;5070706;28;20043;-67
2023/10/26 06:26:58;;;;;;;4.85;4.45;;;9.20;99.90;;;;;;5070548;28;20480;-68
2023/10/26 06:29:24;;;;;;;5.13;4.72;;;9.20;99.90;;;;;;5071857;28;20530;-67
2023/10/26 06:31:49;;;;;;;5.43;4.93;;;9.20;99.90;;;;;;5072092;28;20039;-67
2023/10/26 06:34:15;;;;;;;5.38;4.97;;;9.20;99.90;;;;;;5072030;28;20075;-68
2023/10/26 06:36:40;;;;;;;5.35;4.95;;;9.10;99.90;;;;;;5072293;28;20048;-67
2023/10/26 06:39:06;;;;;;;5.75;5.25;;;9.10;99.90;;;;;;5076010;28;20455;-67
2023/10/26 06:41:32;;;;;;;5.30;4.90;;;9.50;99.90;;;;;;5075980;28;20464;-67
2023/10/26 06:43:57;;;;;;;5.35;4.85;;;9.10;99.90;;;;;;5076144;28;20120;-67
2023/10/26 06:46:23;;;;;;;5.68;5.25;;;9.30;99.90;;;;;;5075737;28;20515;-68
2023/10/26 06:48:49;;;;;;;11.32;4.90;;;9.10;99.90;;;;;;5074874;28;20438;-68
2023/10/26 06:51:15;;;;;;;5.60;5.10;;;9.10;99.90;;;;;;5076008;28;20040;-67
2023/10/26 06:53:40;;;;;;;5.60;5.03;;;9.10;99.90;;;;;;5076256;28;20400;-67
2023/10/26 06:56:12;;;;;;;5.90;5.40;;;9.20;99.90;;;;;;5075946;28;20101;-67
2023/10/26 06:58:39;;;;;;;5.35;4.95;;;9.20;99.90;;;;;;5075551;28;20392;-67
2023/10/26 07:01:09;;;;;;;5.88;5.38;;;9.20;99.90;;;;;;5075845;28;20033;-67
2023/10/26 07:03:35;;;;;;;5.95;5.45;;;9.30;99.90;;;;;;5075773;28;20035;-67
2023/10/26 07:06:04;;;;;;;5.85;5.35;;;9.20;99.90;;;;;;5075689;28;20480;-67
2023/10/26 07:08:31;;;;;;;5.90;5.38;;;9.30;99.90;;;;;;5075771;28;20040;-67
2023/10/26 07:10:57;;;;;;;5.70;5.20;;;9.30;99.90;;;;;;5075639;28;20511;-66
2023/10/26 07:13:23;;;;;;;6.18;5.57;;;9.40;99.90;;;;;;5075657;28;20047;-67
2023/10/26 07:15:49;;;;;;;5.28;4.80;;;9.30;99.90;;;;;;5075546;28;20107;-67
2023/10/26 07:18:18;;;;;;;5.00;4.35;;;9.30;99.90;;;;;;5074060;28;20045;-67
2023/10/26 07:20:44;;;;;;;5.45;5.05;;;10.00;99.90;;;;;;5075200;28;20401;-67
2023/10/26 07:23:09;;;;;;;5.32;4.82;;;9.40;99.90;;;;;;5075468;28;20037;-66
2023/10/26 07:25:35;;;;;;;5.40;5.00;;;9.50;99.90;;;;;;5074957;28;20564;-66
2023/10/26 07:28:02;;;;;;;5.35;4.85;;;9.50;99.90;;;;;;5075428;28;20408;-67
2023/10/26 07:30:27;;;;;;;5.68;5.18;;;9.50;99.90;;;;;;5075291;28;20072;-67
2023/10/26 07:32:53;;;;;;;5.80;5.30;;;9.60;99.90;;;;;;5075191;28;20456;-67
2023/10/26 07:35:19;;;;;;;5.40;4.90;;;9.60;99.90;;;;;;5075235;28;20116;-67
2023/10/26 07:37:45;;;;;;;5.82;5.32;;;9.60;99.90;;;;;;5075061;28;20068;-67
2023/10/26 07:40:11;;;;;;;5.57;5.07;;;9.60;99.90;;;;;;5074866;28;20162;-67
2023/10/26 07:42:37;;;;;;;7.35;5.25;;;9.70;99.90;;;;;;5074620;28;20052;-67
2023/10/26 07:45:02;;;;;;;4.93;4.53;;;9.70;99.90;;;;;;5075071;28;20037;-67
2023/10/26 07:47:28;;;;;;;5.80;5.35;;;9.60;99.90;;;;;;5073369;28;20043;-67
2023/10/26 07:49:54;;;;;;;5.65;5.15;;;9.70;99.90;;;;;;5073612;28;20048;-68
2023/10/26 07:52:19;;;;;;;5.57;5.07;;;9.70;99.90;;;;;;5074579;28;20106;-67
2023/10/26 07:54:45;;;;;;;4.90;4.50;;;9.70;99.90;;;;;;5074788;28;20043;-67
2023/10/26 07:57:10;;;;;;;5.80;5.18;;;9.80;99.90;;;;;;5073262;28;20428;-68
2023/10/26 07:59:36;;;;;;;5.00;4.57;;;9.80;99.90;;;;;;5074435;28;20435;-67
2023/10/26 08:02:02;;;;;;;6.57;5.97;;;9.90;99.90;;;;;;5074686;28;20076;-67
2023/10/26 08:04:32;;;;;;;6.20;5.60;;;9.90;99.90;;;;;;5073160;28;20032;-67
2023/10/26 08:06:58;;;;;;;5.70;5.20;;;10.30;99.90;;;;;;5074503;28;20051;-67
2023/10/26 08:09:28;;;;;;;5.82;5.22;;;9.90;99.90;;;;;;5072985;28;20044;-67
2023/10/26 08:11:53;;;;;;;5.88;5.38;;;9.90;99.90;;;;;;5074498;28;20044;-67
2023/10/26 08:14:19;;;;;;;5.40;5.00;;;9.90;99.90;;;;;;5074552;28;20101;-67
2023/10/26 08:16:44;;;;;;;6.35;5.75;;;10.30;99.90;;;;;;5074385;28;20128;-67
2023/10/26 08:19:10;;;;;;;5.20;4.80;;;10.00;99.90;;;;;;5074533;28;20119;-67
2023/10/26 08:21:35;;;;;;;6.15;5.65;;;10.00;99.90;;;;;;5074274;28;20055;-66
2023/10/26 08:24:01;;;;;;;5.00;4.53;;;10.00;99.90;;;;;;5074306;28;20489;-67
2023/10/26 08:26:26;;;;;;;5.32;4.93;;;10.00;99.90;;;;;;5074060;28;20041;-69
2023/10/26 08:28:52;;;;;;;5.47;4.97;;;10.00;99.90;;;;;;5074270;28;20078;-69
2023/10/26 08:31:18;;;;;;;4.47;4.03;;;10.00;99.90;;;;;;5072506;28;20047;-69
2023/10/26 08:33:43;;;;;;;5.00;4.60;;;10.10;99.90;;;;;;5073667;28;20401;-68
2023/10/26 08:36:09;;;;;;;4.95;4.55;;;10.80;99.90;;;;;;5074014;28;20067;-69
2023/10/26 08:38:34;;;;;;;5.20;4.80;;;10.10;99.90;;;;;;5073902;28;20037;-69
2023/10/26 08:41:00;;;;;;;4.22;3.83;;;10.10;99.90;;;;;;5072258;28;20530;-68
2023/10/26 08:43:28;;;;;;;5.28;4.88;;;11.70;99.90;;;;;;5073812;28;20487;-69
2023/10/26 08:45:58;;;;;;;4.45;4.13;;;10.20;99.90;;;;;;5072427;28;20412;-69
2023/10/26 08:48:27;;;;;;;5.22;4.72;;;10.20;99.90;;;;;;5072232;28;20044;-69
2023/10/26 08:50:52;;;;;;;4.35;3.95;;;10.20;99.90;;;;;;5073435;28;20083;-68
2023/10/26 08:53:18;;;;;;;4.78;4.38;;;10.10;99.90;;;;;;5073348;28;20079;-68
2023/10/26 08:55:44;;;;;;;5.28;4.88;;;10.20;99.90;;;;;;5073530;28;20075;-68
2023/10/26 08:58:09;;;;;;;5.38;4.88;;;10.70;99.90;;;;;;5073628;28;20036;-68
2023/10/26 09:00:37;;;;;;;4.75;4.32;;;10.20;99.90;;;;;;5072588;28;20040;-68
2023/10/26 09:03:03;;;;;;;4.68;4.28;;;10.20;99.90;;;;;;5073431;28;20048;-68
2023/10/26 09:05:29;;;;;;;5.28;4.88;;;10.30;99.90;;;;;;5073053;28;20089;-68
2023/10/26 09:07:54;;;;;;;4.57;4.22;;;11.00;99.90;;;;;;5072957;28;20036;-68
2023/10/26 09:10:31;;;;;;;4.32;3.92;;;10.30;99.90;;;;;;5073242;28;20036;-68
2023/10/26 09:13:01;;;;;;;4.68;4.30;;;10.40;99.90;;;;;;5073162;28;20119;-68
2023/10/26 09:15:28;;;;;;;4.25;3.95;;;10.40;99.90;;;;;;5071906;28;20037;-68
2023/10/26 09:18:00;;;;;;;4.40;4.00;;;10.50;99.90;;;;;;5073095;28;20086;-67
2023/10/26 09:20:26;;;;;;;3.97;3.53;;;10.60;99.90;;;;;;5071688;28;20121;-68
2023/10/26 09:22:52;;;;;;;3.92;3.63;;;10.70;99.90;;;;;;5072946;28;20420;-68
2023/10/26 09:25:18;;;;;;;4.05;3.75;;;10.70;99.90;;;;;;5072962;28;20059;-68
2023/10/26 09:27:48;;;;;;;4.38;4.07;;;10.70;99.90;;;;;;5072913;28;20091;-68
2023/10/26 09:30:30;;;;;;;4.85;4.45;;;10.80;99.90;;;;;;5072960;28;20476;-68
2023/10/26 09:32:56;;;;;;;4.38;4.00;;;10.70;99.90;;;;;;5071520;28;20036;-69
2023/10/26 09:35:33;;;;;;;4.35;3.95;;;10.80;99.90;;;;;;5071512;28;20036;-68
2023/10/26 09:38:00;;;;;;;4.45;4.05;;;10.80;99.90;;;;;;5072467;28;20040;-68
2023/10/26 09:40:26;;;;;;;4.45;4.13;;;10.90;99.90;;;;;;5072490;28;20033;-67
2023/10/26 09:42:55;;;;;;;4.63;4.22;;;10.80;99.90;;;;;;5072107;28;20063;-67
2023/10/26 09:45:21;;;;;;;5.18;4.78;;;10.80;99.90;;;;;;5071251;28;20044;-67
2023/10/26 09:47:48;;;;;;;5.30;4.78;;;10.80;99.90;;;;;;5071414;28;20068;-67
2023/10/26 09:50:14;;;;;;;4.65;4.25;;;10.90;99.90;;;;;;5072622;28;20079;-67
2023/10/26 09:52:42;;;;;;;4.30;3.90;;;10.90;99.90;;;;;;5072217;28;20037;-67
2023/10/26 09:55:10;;;;;;;4.53;4.13;;;10.90;99.90;;;;;;5072553;28;20036;-68
2023/10/26 09:57:44;;;;;;;4.93;4.53;;;10.90;99.90;;;;;;5070896;28;20052;-67
2023/10/26 10:00:10;;;;;;;4.70;4.30;;;10.80;99.90;;;;;;5072207;28;20036;-67
2023/10/26 10:02:36;;;;;;;4.45;4.03;;;10.80;99.90;;;;;;5071996;28;20480;-67
2023/10/26 10:05:02;;;;;;;4.65;4.25;;;10.90;99.90;;;;;;5072463;28;20137;-67
2023/10/26 10:07:45;;;;;;;4.93;4.53;;;11.00;99.90;;;;;;5072344;28;20473;-67
2023/10/26 10:10:13;;;;;;;4.30;4.00;;;11.00;99.90;;;;;;5070813;28;20066;-66
2023/10/26 10:12:40;;;;;;;3.75;3.45;;;11.10;99.90;;;;;;5070588;28;20072;-67
2023/10/26 10:15:07;;;;;;;4.20;3.80;;;11.00;99.90;;;;;;5070786;28;20086;-67
2023/10/26 10:17:44;;;;;;;4.80;4.40;;;11.10;99.90;;;;;;5071927;28;20036;-67
2023/10/26 10:20:18;;;;;;;4.60;4.20;;;11.10;99.90;;;;;;5072198;28;20044;-66
2023/10/26 10:22:44;;;;;;;4.68;4.28;;;11.10;99.90;;;;;;5071841;28;20052;-67
2023/10/26 10:25:13;;;;;;;4.30;4.00;;;11.10;99.90;;;;;;5072191;28;20044;-68
2023/10/26 10:27:40;;;;;;;4.00;3.70;;;11.10;99.90;;;;;;5071778;28;20059;-67
2023/10/26 10:30:08;;;;;;;4.25;3.95;;;11.10;99.90;;;;;;5071829;28;20454;-67
2023/10/26 10:32:50;;;;;;;4.80;4.40;;;11.20;99.90;;;;;;5072020;28;20493;-67
2023/10/26 10:35:21;;;;;;;4.80;4.28;;;11.20;99.90;;;;;;5070618;28;20044;-71
2023/10/26 10:38:18;;;;;;;4.30;3.90;;;11.30;99.90;;;;;;5070740;28;20499;-67
2023/10/26 10:40:59;;;;;;;4.03;3.72;;;11.30;99.90;;;;;;5070367;28;20115;-67
2023/10/26 10:43:40;;;;;;;4.50;4.10;;;11.40;99.90;;;;;;5072017;28;20040;-67
2023/10/26 10:46:16;;;;;;;4.90;4.40;;;11.40;99.90;;;;;;5071633;28;20408;-67
2023/10/26 10:49:00;;;;;;;4.72;3.90;;;11.40;99.90;;;;;;5070733;28;20041;-67
2023/10/26 10:51:43;;;;;;;3.85;3.55;;;11.40;99.90;;;;;;5071977;28;20078;-67
2023/10/26 10:54:14;;;;;;;4.25;3.95;;;11.30;99.90;;;;;;5070434;28;20455;-67
2023/10/26 10:56:41;;;;;;;4.20;3.80;;;11.40;99.90;;;;;;5071899;28;20036;-67
2023/10/26 10:59:23;;;;;;;4.32;4.00;;;11.60;99.90;;;;;;5071584;28;20044;-67
2023/10/26 11:01:50;;;;;;;4.18;3.88;;;11.70;99.90;;;;;;5070482;28;20048;-67
2023/10/26 11:04:16;;;;;;;3.60;3.30;;;11.70;99.90;;;;;;5071779;28;20043;-66
2023/10/26 11:06:47;;;;;;;4.13;3.72;;;11.70;99.90;;;;;;5071680;28;20431;-67
2023/10/26 11:09:26;;;;;;;4.15;3.85;;;11.70;99.90;;;;;;5070503;28;20392;-67
2023/10/26 11:11:52;;;;;;;3.60;3.30;;;11.70;99.90;;;;;;5071311;28;20040;-67
2023/10/26 11:14:20;;;;;;;28.92;26.73;;;11.70;99.90;;;;;;5071865;28;20477;-67
2023/10/26 11:16:46;;;;;;;4.20;3.83;;;11.90;99.90;;;;;;5071493;28;20377;-66
2023/10/26 11:19:12;;;;;;;3.90;3.60;;;11.70;99.90;;;;;;5071464;28;20515;-67
2023/10/26 11:21:39;;;;;;;3.85;3.45;;;11.60;99.90;;;;;;5070064;28;20068;-67
2023/10/26 11:24:05;;;;;;;3.95;3.65;;;12.10;99.90;;;;;;5073629;28;20545;-67
2023/10/26 11:26:30;;;;;;;3.88;3.58;;;11.70;99.90;;;;;;5075101;28;20472;-67
2023/10/26 11:28:56;;;;;;;3.83;3.50;;;11.70;99.90;;;;;;5074902;28;20037;-66
2023/10/26 11:31:43;;;;;;;4.47;4.07;;;11.70;99.90;;;;;;5073721;28;20079;-67
2023/10/26 11:34:10;;;;;;;4.32;4.03;;;11.80;99.90;;;;;;5074994;28;20033;-67
2023/10/26 11:36:44;;;;;;;4.22;3.83;;;11.80;99.90;;;;;;5074837;28;20079;-67
2023/10/26 11:39:09;;;;;;;3.97;3.67;;;11.90;99.90;;;;;;5075195;28;20157;-67
2023/10/26 11:41:35;;;;;;;4.70;4.30;;;12.00;99.90;;;;;;5074806;28;20503;-67
2023/10/26 11:44:01;;;;;;;4.03;3.72;;;;;;;;;;5075061;28;20053;-67
2023/10/26 11:46:35;;;;;;;4.35;4.05;;;;;;;;;;5074911;28;20045;-67
2023/10/26 11:49:01;;;;;;;4.65;4.25;;;;;;;;;;5073748;28;20085;-67
2023/10/26 11:51:28;;;;;;;4.47;4.07;;;;;;;;;;5074846;28;20064;-67
2023/10/26 11:53:55;;;;;;;4.35;4.05;;;;;;;;;;5074597;28;20119;-67
2023/10/26 11:56:21;;;;;;;4.70;4.13;;;;;;;;;;5074552;28;20052;-67
2023/10/26 11:58:47;;;;;;;4.00;3.70;;;;;;;;;;5074863;28;20416;-67
2023/10/26 12:01:13;;;;;;;4.35;3.75;;;;;;;;;;5074820;28;20052;-67
2023/10/26 12:03:43;;;;;;;3.72;3.42;;;;;;;;;;5073146;28;20045;-66
2023/10/26 12:06:11;;;;;;;4.30;4.00;;;;;;;;;;5074623;28;20561;-67
2023/10/26 12:08:37;;;;;;;4.13;3.72;;;;;;;;;;5074599;28;20119;-67
2023/10/26 12:11:04;;;;;;;4.57;4.18;;;;;;;;;;5074330;28;20044;-67
2023/10/26 12:13:32;;;;;;;4.40;4.10;;;;;;;;;;5074563;28;20049;-67
2023/10/26 12:15:58;;;;;;;4.13;3.83;;;;;;;;;;5073236;28;20067;-67
2023/10/26 12:18:24;;;;;;;4.28;3.88;;;;;;;;;;5074124;28;20573;-67
2023/10/26 12:20:50;;;;;;;4.57;4.18;;;;;;;;;;5074420;28;20127;-67
2023/10/26 12:23:16;;;;;;;4.35;3.95;;;;;;;;;;5074384;28;20040;-67
2023/10/26 12:25:42;;;;;;;3.72;3.42;;;;;;;;;;5074210;28;20404;-67
2023/10/26 12:28:08;;;;;;;4.03;3.72;;;;;;;;;;5074237;28;20033;-67
2023/10/26 12:30:34;;;;;;;4.03;3.72;;;;;;;;;;5072670;28;20052;-67
2023/10/26 12:33:00;;;;;;;3.75;3.45;;;;;;;;;;5074234;28;20393;-68
2023/10/26 12:35:26;;;;;;;4.38;4.03;;;;;;;;;;5072545;28;20093;-67
2023/10/26 12:37:52;;;;;;;3.92;3.63;;;;;;;;;;5072721;28;20047;-67
2023/10/26 12:40:20;;;;;;;4.07;3.67;;;;;;;;;;5073980;28;20047;-67
2023/10/26 12:42:46;;;;;;;3.92;3.63;;;;;;;;;;5073487;28;20150;-67
2023/10/26 12:45:13;;;;;;;3.78;3.47;;;;;;;;;;5073929;28;20036;-67
2023/10/26 12:47:39;;;;;;;5.15;3.83;;;;;;;;;;5073483;28;20049;-67
2023/10/26 12:50:05;;;;;;;3.70;3.40;;;;;;;;;;5073850;28;20042;-67
2023/10/26 12:52:31;;;;;;;3.90;3.60;;;;;;;;;;5073807;28;20435;-67
2023/10/26 12:54:57;;;;;;;3.50;3.25;;;;;;;;;;5073644;28;20047;-67
2023/10/26 12:57:23;;;;;;;4.25;3.17;;;;;;;;;;5073653;28;20118;-67
2023/10/26 12:59:50;;;;;;;3.80;3.50;;;;;;;;;;5073688;28;20044;-67
2023/10/26 13:02:16;;;;;;;3.85;3.55;;;;;;;;;;5073543;28;20051;-67